Time;durP1;ratioP1;P1;durP2;ratioP2;P2;SDS_P1;SDS_P2;PMS_P1;PMS_P2;Temp;Humidity;BMP_temperature;BMP_pressure;BME280_temperature;BME280_humidity;BME280_pressure;Samples;Min_cycle;Max_cycle;Signal;HPM_P1;HPM_P2
2021/05/20 00:01:25;;;;;;;2.97;2.67;;;11.80;99.90;;;;;;5094250;28;20667;-74
2021/05/20 00:03:52;;;;;;;3.10;2.90;;;11.80;99.90;;;;;;5094480;28;20166;-74
2021/05/20 00:06:17;;;;;;;4.60;4.20;;;11.90;99.90;;;;;;5094154;28;20799;-74
2021/05/20 00:08:43;;;;;;;4.80;3.53;;;11.90;99.90;;;;;;5093887;28;20474;-74
2021/05/20 00:11:09;;;;;;;3.40;3.10;;;11.90;99.90;;;;;;5094023;28;20183;-74
2021/05/20 00:13:34;;;;;;;3.60;3.30;;;11.90;99.90;;;;;;5093789;28;20173;-74
2021/05/20 00:16:00;;;;;;;4.60;3.40;;;11.90;99.90;;;;;;5094126;28;20173;-74
2021/05/20 00:18:25;;;;;;;4.87;3.00;;;11.90;99.90;;;;;;5092573;28;20193;-74
2021/05/20 00:20:51;;;;;;;4.47;3.63;;;11.80;99.90;;;;;;5093535;28;20180;-74
2021/05/20 00:23:16;;;;;;;3.30;3.00;;;11.80;99.90;;;;;;5093571;28;20255;-74
2021/05/20 00:25:41;;;;;;;5.43;3.80;;;11.70;99.90;;;;;;5105465;28;20176;-74
2021/05/20 00:28:07;;;;;;;3.23;2.70;;;11.70;99.90;;;;;;5113489;28;20718;-74
2021/05/20 00:30:32;;;;;;;3.53;3.23;;;11.60;99.90;;;;;;5114068;28;20153;-74
2021/05/20 00:32:58;;;;;;;2.53;2.33;;;11.50;99.90;;;;;;5106256;28;20172;-75
2021/05/20 00:35:23;;;;;;;3.57;3.27;;;11.50;99.90;;;;;;5093496;28;20187;-74
2021/05/20 00:37:49;;;;;;;3.33;3.03;;;11.40;99.90;;;;;;5093080;28;20173;-74
2021/05/20 00:40:15;;;;;;;3.47;3.17;;;11.40;99.90;;;;;;5093422;28;20178;-74
2021/05/20 00:42:45;;;;;;;3.70;3.00;;;11.40;99.90;;;;;;5079761;28;20174;-74
2021/05/20 00:45:11;;;;;;;3.70;3.40;;;11.50;99.90;;;;;;5077780;28;20427;-74
2021/05/20 00:47:37;;;;;;;3.53;3.23;;;11.40;99.90;;;;;;5092816;28;20457;-74
2021/05/20 00:50:08;;;;;;;3.40;3.10;;;11.50;99.90;;;;;;5093190;28;20400;-74
2021/05/20 00:52:34;;;;;;;4.10;2.53;;;11.40;99.90;;;;;;5092907;28;20260;-74
2021/05/20 00:55:00;;;;;;;3.07;2.87;;;11.30;99.90;;;;;;5092846;28;20998;-74
2021/05/20 00:57:26;;;;;;;3.93;3.20;;;11.20;99.90;;;;;;5092787;28;20465;-74
2021/05/20 00:59:52;;;;;;;3.23;3.03;;;11.30;99.90;;;;;;5092981;28;20805;-74
2021/05/20 01:02:19;;;;;;;3.90;3.53;;;11.20;99.90;;;;;;5092753;28;20469;-74
2021/05/20 01:04:45;;;;;;;4.00;3.40;;;11.30;99.90;;;;;;5092830;28;20414;-74
2021/05/20 01:07:11;;;;;;;2.83;2.63;;;11.20;99.90;;;;;;5092488;28;20450;-74
2021/05/20 01:09:36;;;;;;;4.60;3.40;;;11.20;99.90;;;;;;5092643;28;20200;-74
2021/05/20 01:12:03;;;;;;;3.60;3.30;;;11.30;99.90;;;;;;5091218;28;20238;-74
2021/05/20 01:14:29;;;;;;;3.30;3.00;;;11.30;99.90;;;;;;5092810;28;20538;-74
2021/05/20 01:16:54;;;;;;;3.30;3.00;;;11.20;99.90;;;;;;5092132;28;20414;-74
2021/05/20 01:19:20;;;;;;;5.77;3.17;;;11.20;99.90;;;;;;5092514;28;20242;-74
2021/05/20 01:21:45;;;;;;;5.93;3.20;;;11.20;99.90;;;;;;5091077;28;20165;-73
2021/05/20 01:24:12;;;;;;;3.17;2.87;;;11.20;99.90;;;;;;5083993;28;20730;-73
2021/05/20 01:26:39;;;;;;;2.90;2.70;;;11.20;99.90;;;;;;5087091;28;20659;-74
2021/05/20 01:29:06;;;;;;;3.23;3.00;;;11.20;99.90;;;;;;5090055;28;20556;-74
2021/05/20 01:31:32;;;;;;;3.13;2.93;;;11.20;99.90;;;;;;5071792;28;20915;-74
2021/05/20 01:33:57;;;;;;;3.10;2.90;;;11.10;99.90;;;;;;5087305;28;20421;-74
2021/05/20 01:36:25;;;;;;;2.77;2.60;;;11.10;99.90;;;;;;5091949;28;20412;-74
2021/05/20 01:38:50;;;;;;;5.70;2.63;;;11.10;99.90;;;;;;5092271;28;20185;-74
2021/05/20 01:41:15;;;;;;;3.30;3.00;;;11.10;99.90;;;;;;5086498;28;20925;-74
2021/05/20 01:43:41;;;;;;;2.73;2.53;;;11.10;99.90;;;;;;5092162;28;20592;-74
2021/05/20 01:46:07;;;;;;;3.30;2.40;;;11.10;99.90;;;;;;5092797;28;20223;-74
2021/05/20 01:48:34;;;;;;;3.93;3.07;;;11.20;99.90;;;;;;5091839;28;20463;-74
2021/05/20 01:51:04;;;;;;;2.40;2.20;;;11.20;99.90;;;;;;5092097;28;20188;-74
2021/05/20 01:53:30;;;;;;;4.30;2.57;;;11.20;99.90;;;;;;5092036;28;20457;-74
2021/05/20 01:55:56;;;;;;;2.30;2.10;;;11.20;99.90;;;;;;5090500;28;20890;-74
2021/05/20 01:58:22;;;;;;;2.73;2.37;;;11.20;99.90;;;;;;5091428;28;20451;-74
2021/05/20 02:00:47;;;;;;;3.10;2.90;;;11.10;99.90;;;;;;5091957;28;20403;-74
2021/05/20 02:03:13;;;;;;;3.40;3.10;;;11.10;99.90;;;;;;5091860;28;20201;-74
2021/05/20 02:05:38;;;;;;;4.30;3.90;;;11.10;99.90;;;;;;5092144;28;20632;-75
2021/05/20 02:08:04;;;;;;;3.70;3.33;;;11.10;99.90;;;;;;5091677;28;20209;-74
2021/05/20 02:10:30;;;;;;;2.90;2.70;;;11.00;99.90;;;;;;5092036;28;20199;-74
2021/05/20 02:12:55;;;;;;;4.40;3.50;;;11.00;99.90;;;;;;5092187;28;20551;-74
2021/05/20 02:15:21;;;;;;;4.90;4.37;;;11.00;99.90;;;;;;5091773;28;20204;-74
2021/05/20 02:17:47;;;;;;;3.23;2.90;;;11.10;99.90;;;;;;5091356;28;20174;-74
2021/05/20 02:20:13;;;;;;;3.30;3.10;;;11.10;99.90;;;;;;5092214;28;20177;-74
2021/05/20 02:22:38;;;;;;;3.37;3.03;;;11.00;99.90;;;;;;5091586;28;20598;-74
2021/05/20 02:25:05;;;;;;;3.37;2.80;;;11.00;99.90;;;;;;5099686;28;20412;-74
2021/05/20 02:27:31;;;;;;;3.70;3.10;;;11.00;99.90;;;;;;5110035;28;20208;-74
2021/05/20 02:29:57;;;;;;;2.83;2.50;;;11.00;99.90;;;;;;5112043;28;20543;-74
2021/05/20 02:32:22;;;;;;;3.23;3.03;;;11.00;99.90;;;;;;5109506;28;20687;-75
2021/05/20 02:34:47;;;;;;;3.40;3.10;;;11.00;99.90;;;;;;5091525;28;20486;-75
2021/05/20 02:37:13;;;;;;;2.90;2.70;;;11.00;99.90;;;;;;5091342;28;20165;-75
2021/05/20 02:39:39;;;;;;;4.23;2.40;;;11.00;99.90;;;;;;5091278;28;20185;-73
2021/05/20 02:42:05;;;;;;;5.40;2.70;;;11.00;99.90;;;;;;5094349;28;20176;-73
2021/05/20 02:44:30;;;;;;;2.97;2.53;;;11.00;99.90;;;;;;5098761;28;20169;-73
2021/05/20 02:46:56;;;;;;;3.07;2.77;;;10.90;99.90;;;;;;5097870;28;20787;-73
2021/05/20 02:49:22;;;;;;;3.60;3.30;;;10.90;99.90;;;;;;5094248;28;20189;-73
2021/05/20 02:51:47;;;;;;;3.40;3.10;;;10.90;99.90;;;;;;5095726;28;20246;-74
2021/05/20 02:54:13;;;;;;;3.30;3.00;;;10.90;99.90;;;;;;5095162;28;20482;-74
2021/05/20 02:56:39;;;;;;;3.47;3.13;;;10.90;99.90;;;;;;5095164;28;20944;-73
2021/05/20 02:59:05;;;;;;;3.73;2.80;;;10.90;99.90;;;;;;5095303;28;20209;-73
2021/05/20 03:01:31;;;;;;;2.77;2.50;;;10.90;99.90;;;;;;5095013;28;20407;-73
2021/05/20 03:03:56;;;;;;;3.10;2.90;;;10.90;99.90;;;;;;5095299;28;20408;-73
2021/05/20 03:06:21;;;;;;;2.93;2.73;;;10.90;99.90;;;;;;5095035;28;20169;-73
2021/05/20 03:08:47;;;;;;;4.30;4.00;;;10.90;99.90;;;;;;5094837;28;20688;-74
2021/05/20 03:11:12;;;;;;;3.07;2.87;;;10.90;99.90;;;;;;5095402;28;20170;-74
2021/05/20 03:13:38;;;;;;;5.00;3.07;;;10.90;99.90;;;;;;5095700;28;20245;-74
2021/05/20 03:16:03;;;;;;;3.80;3.50;;;10.90;99.90;;;;;;5095120;28;20699;-73
2021/05/20 03:18:29;;;;;;;3.17;2.97;;;10.90;99.90;;;;;;5095197;28;20196;-74
2021/05/20 03:20:54;;;;;;;3.93;2.93;;;10.90;99.90;;;;;;5094809;28;20695;-74
2021/05/20 03:23:20;;;;;;;3.00;2.80;;;10.90;99.90;;;;;;5094601;28;20206;-73
2021/05/20 03:25:45;;;;;;;4.27;3.83;;;10.90;99.90;;;;;;5094800;28;20174;-74
2021/05/20 03:28:11;;;;;;;3.80;3.40;;;10.90;99.90;;;;;;5094510;28;20777;-74
2021/05/20 03:30:36;;;;;;;3.70;3.40;;;10.90;99.90;;;;;;5094841;28;20582;-74
2021/05/20 03:33:02;;;;;;;4.00;3.50;;;10.90;99.90;;;;;;5099191;28;20170;-74
2021/05/20 03:35:27;;;;;;;4.67;3.37;;;10.90;99.90;;;;;;5106351;28;20226;-74
2021/05/20 03:37:53;;;;;;;3.23;2.93;;;10.90;99.90;;;;;;5114662;28;20224;-74
2021/05/20 03:40:19;;;;;;;4.37;4.07;;;10.80;99.90;;;;;;5101052;28;20185;-74
2021/05/20 03:42:45;;;;;;;3.70;3.40;;;10.80;99.90;;;;;;5094086;28;20162;-74
2021/05/20 03:45:11;;;;;;;3.93;3.63;;;10.80;99.90;;;;;;5096438;28;20400;-74
2021/05/20 03:47:38;;;;;;;4.47;3.63;;;10.80;99.90;;;;;;5093865;28;20195;-73
2021/05/20 03:50:04;;;;;;;4.97;4.57;;;10.70;99.90;;;;;;5094517;28;20410;-73
2021/05/20 03:52:30;;;;;;;9.70;4.37;;;10.70;99.90;;;;;;5092938;28;20912;-73
2021/05/20 03:54:55;;;;;;;4.40;3.53;;;10.70;99.90;;;;;;5093629;28;20170;-73
2021/05/20 03:57:21;;;;;;;6.30;3.73;;;10.70;99.90;;;;;;5094030;28;20177;-72
2021/05/20 03:59:46;;;;;;;4.33;3.93;;;10.80;99.90;;;;;;5094303;28;20197;-73
2021/05/20 04:02:12;;;;;;;4.20;3.80;;;10.80;99.90;;;;;;5094077;28;20173;-73
2021/05/20 04:04:37;;;;;;;4.40;3.93;;;10.80;99.90;;;;;;5094240;28;20275;-74
2021/05/20 04:07:02;;;;;;;4.20;3.90;;;10.90;99.90;;;;;;5093836;28;20173;-74
2021/05/20 04:09:28;;;;;;;4.80;4.37;;;10.80;99.90;;;;;;5082367;28;20210;-73
2021/05/20 04:11:53;;;;;;;4.30;4.00;;;10.80;99.90;;;;;;5073829;28;20176;-74
2021/05/20 04:14:19;;;;;;;4.63;4.23;;;10.80;99.90;;;;;;5074074;28;20196;-74
2021/05/20 04:16:44;;;;;;;5.03;4.60;;;10.80;99.90;;;;;;5073715;28;20206;-74
2021/05/20 04:19:11;;;;;;;4.10;3.80;;;10.80;99.90;;;;;;5073975;28;20244;-74
2021/05/20 04:21:37;;;;;;;4.33;3.93;;;10.70;99.90;;;;;;5080332;28;20170;-74
2021/05/20 04:24:02;;;;;;;4.33;3.93;;;10.80;99.90;;;;;;5085618;28;20416;-75
2021/05/20 04:26:28;;;;;;;4.90;4.00;;;10.70;99.90;;;;;;5073807;28;20228;-75
2021/05/20 04:28:54;;;;;;;5.30;4.80;;;10.80;99.90;;;;;;5073467;28;20208;-74
2021/05/20 04:31:20;;;;;;;5.00;4.57;;;10.70;99.90;;;;;;5073743;28;20532;-74
2021/05/20 04:33:45;;;;;;;6.00;5.40;;;10.80;99.90;;;;;;5073715;28;20420;-74
2021/05/20 04:36:11;;;;;;;4.97;4.57;;;10.70;99.90;;;;;;5073354;28;20178;-75
2021/05/20 04:38:37;;;;;;;5.50;5.00;;;10.70;99.90;;;;;;5073298;28;20260;-74
2021/05/20 04:41:02;;;;;;;4.97;4.53;;;10.70;99.90;;;;;;5092924;28;20173;-70
2021/05/20 04:43:28;;;;;;;4.27;3.97;;;10.80;99.90;;;;;;5077876;28;20177;-72
2021/05/20 04:45:54;;;;;;;6.53;5.60;;;10.90;99.90;;;;;;5095086;28;20248;-73
2021/05/20 04:48:19;;;;;;;4.60;4.20;;;11.00;99.90;;;;;;5092952;28;20276;-73
2021/05/20 04:50:44;;;;;;;5.17;4.77;;;11.00;99.90;;;;;;5092789;28;20166;-73
2021/05/20 04:53:10;;;;;;;6.77;4.53;;;11.00;99.90;;;;;;5093103;28;20165;-73
2021/05/20 04:55:35;;;;;;;4.83;4.43;;;11.00;99.90;;;;;;5092950;28;20192;-73
2021/05/20 04:58:01;;;;;;;5.40;4.67;;;11.00;99.90;;;;;;5092932;28;20597;-72
2021/05/20 05:00:27;;;;;;;5.87;5.37;;;11.10;99.90;;;;;;5092416;28;20166;-73
2021/05/20 05:02:52;;;;;;;5.73;5.23;;;11.20;99.90;;;;;;5092828;28;20531;-73
2021/05/20 05:05:18;;;;;;;5.17;4.67;;;11.10;99.90;;;;;;5092530;28;20218;-73
2021/05/20 05:07:44;;;;;;;5.30;4.80;;;11.30;99.90;;;;;;5092547;28;20189;-74
2021/05/20 05:10:10;;;;;;;5.73;5.23;;;11.40;99.90;;;;;;5093208;28;20165;-73
2021/05/20 05:12:36;;;;;;;5.67;5.27;;;11.40;99.90;;;;;;5092680;28;20834;-72
2021/05/20 05:15:01;;;;;;;6.00;5.50;;;11.10;99.90;;;;;;5092713;28;20438;-72
2021/05/20 05:17:27;;;;;;;6.53;5.93;;;11.20;99.90;;;;;;5092273;28;20249;-71
2021/05/20 05:19:52;;;;;;;6.17;5.57;;;11.50;99.90;;;;;;5092450;28;20189;-71
2021/05/20 05:22:18;;;;;;;6.33;5.73;;;11.60;99.90;;;;;;5092450;28;20828;-72
2021/05/20 05:24:44;;;;;;;5.67;5.17;;;11.60;99.90;;;;;;5077927;28;20543;-73
2021/05/20 05:27:09;;;;;;;5.67;5.17;;;11.60;99.90;;;;;;5071925;28;20440;-72
2021/05/20 05:29:35;;;;;;;5.40;5.00;;;11.60;99.90;;;;;;5071939;28;20190;-73
2021/05/20 05:32:01;;;;;;;6.73;5.43;;;11.80;99.90;;;;;;5072417;28;20609;-72
2021/05/20 05:34:27;;;;;;;4.63;4.33;;;12.00;99.90;;;;;;5072455;28;20645;-73
2021/05/20 05:36:53;;;;;;;4.70;4.40;;;12.30;99.90;;;;;;5071958;28;20396;-73
2021/05/20 05:39:18;;;;;;;6.90;6.20;;;11.90;99.90;;;;;;5075375;28;20720;-73
2021/05/20 05:41:44;;;;;;;5.40;4.73;;;12.10;99.90;;;;;;5078176;28;20169;-73
2021/05/20 05:44:12;;;;;;;6.47;5.30;;;12.20;99.90;;;;;;5091034;28;20170;-73
2021/05/20 05:46:37;;;;;;;5.67;5.17;;;12.10;99.90;;;;;;5093715;28;20169;-72
2021/05/20 05:49:23;;;;;;;6.80;4.60;;;12.10;99.90;;;;;;5091457;28;20895;-72
2021/05/20 05:51:51;;;;;;;5.40;4.50;;;12.20;99.90;;;;;;5090601;28;20191;-72
2021/05/20 05:54:17;;;;;;;5.47;5.00;;;12.50;99.90;;;;;;5084716;28;20433;-72
2021/05/20 05:56:43;;;;;;;5.07;4.67;;;12.90;99.90;;;;;;5071741;28;20949;-71
2021/05/20 05:59:10;;;;;;;4.93;4.50;;;12.60;99.90;;;;;;5071835;28;20194;-72
2021/05/20 06:01:38;;;;;;;4.27;3.90;;;12.70;99.90;;;;;;5071407;28;20723;-72
2021/05/20 06:04:08;;;;;;;4.37;4.00;;;13.40;99.90;;;;;;5071418;28;20436;-73
2021/05/20 06:06:35;;;;;;;3.77;3.47;;;14.20;99.90;;;;;;5076847;28;20427;-73
2021/05/20 06:09:01;;;;;;;4.80;4.30;;;13.80;99.90;;;;;;5076063;28;20509;-72
2021/05/20 06:11:26;;;;;;;3.93;3.63;;;14.10;99.90;;;;;;5091653;28;20424;-72
2021/05/20 06:13:51;;;;;;;4.80;4.40;;;14.20;99.90;;;;;;5091686;28;20173;-73
2021/05/20 06:16:17;;;;;;;4.43;4.10;;;14.00;99.90;;;;;;5090662;28;20667;-73
2021/05/20 06:18:42;;;;;;;4.70;4.00;;;14.10;99.90;;;;;;5090097;28;20186;-73
2021/05/20 06:21:08;;;;;;;4.60;4.27;;;14.10;99.90;;;;;;5081841;28;20675;-70
2021/05/20 06:23:33;;;;;;;4.57;4.17;;;14.30;99.90;;;;;;5087598;28;20179;-73
2021/05/20 06:25:59;;;;;;;4.67;4.20;;;13.50;99.90;;;;;;5070213;28;20226;-73
2021/05/20 06:28:25;;;;;;;5.00;4.10;;;13.70;99.90;;;;;;5071273;28;20282;-74
2021/05/20 06:30:51;;;;;;;6.13;4.70;;;13.80;99.90;;;;;;5071905;28;20175;-74
2021/05/20 06:33:19;;;;;;;4.43;4.03;;;13.20;99.90;;;;;;5071092;28;20966;-74
2021/05/20 06:35:45;;;;;;;4.83;3.93;;;14.40;99.90;;;;;;5087771;28;20419;-74
2021/05/20 06:38:10;;;;;;;4.80;4.40;;;14.50;99.90;;;;;;5091299;28;20643;-74
2021/05/20 06:40:35;;;;;;;3.97;3.67;;;14.80;99.90;;;;;;5091410;28;20183;-75
2021/05/20 06:43:01;;;;;;;3.73;3.43;;;14.60;99.90;;;;;;5075020;28;20186;-75
2021/05/20 06:45:26;;;;;;;4.73;4.33;;;14.50;99.90;;;;;;5080494;28;20174;-75
2021/05/20 06:47:53;;;;;;;3.80;3.50;;;14.70;99.90;;;;;;5111468;28;20212;-75
2021/05/20 06:50:19;;;;;;;6.70;4.00;;;14.80;99.90;;;;;;5111776;28;20163;-75
2021/05/20 06:52:44;;;;;;;3.70;3.33;;;14.90;99.90;;;;;;5111725;28;20396;-75
2021/05/20 06:55:10;;;;;;;8.40;4.53;;;14.50;99.90;;;;;;5111722;28;20190;-75
2021/05/20 07:00:20;;;;;;;5.90;3.67;;;14.90;99.90;;;;;;5106944;28;20236;-75
2021/05/20 07:02:46;;;;;;;6.03;4.40;;;15.00;99.90;;;;;;5081813;28;20417;-75
2021/05/20 07:05:12;;;;;;;5.23;4.10;;;15.60;99.90;;;;;;5071290;28;20189;-75
2021/05/20 07:07:38;;;;;;;4.13;3.70;;;15.10;99.90;;;;;;5070879;28;20445;-75
2021/05/20 07:10:05;;;;;;;3.60;3.13;;;14.30;99.90;;;;;;5074256;28;20410;-75
2021/05/20 07:12:31;;;;;;;7.37;3.93;;;14.90;99.90;;;;;;5091510;28;20191;-74
2021/05/20 07:14:58;;;;;;;3.73;3.43;;;15.30;99.90;;;;;;5091131;28;20846;-74
2021/05/20 07:17:24;;;;;;;4.80;4.13;;;15.00;99.90;;;;;;5091192;28;20175;-74
2021/05/20 07:19:49;;;;;;;3.57;3.13;;;14.80;99.90;;;;;;5078089;28;20538;-73
2021/05/20 07:22:15;;;;;;;3.00;2.43;;;15.40;99.90;;;;;;5083061;28;20724;-74
2021/05/20 07:24:42;;;;;;;3.33;2.80;;;15.70;99.90;;;;;;5091047;28;20173;-74
2021/05/20 07:27:07;;;;;;;5.60;3.07;;;15.50;99.90;;;;;;5091479;28;20590;-75
2021/05/20 07:29:33;;;;;;;2.80;2.20;;;16.50;99.90;;;;;;5094529;28;20423;-74
2021/05/20 07:31:58;;;;;;;2.67;2.47;;;16.30;99.90;;;;;;5094497;28;20171;-74
2021/05/20 07:34:24;;;;;;;2.23;1.80;;;16.10;99.90;;;;;;5076551;28;20160;-74
2021/05/20 07:36:49;;;;;;;2.37;2.17;;;17.90;99.90;;;;;;5074584;28;20168;-74
2021/05/20 07:39:15;;;;;;;3.13;2.50;;;18.30;99.90;;;;;;5078790;28;20207;-73
2021/05/20 07:41:41;;;;;;;3.73;2.27;;;18.10;99.90;;;;;;5089419;28;20164;-74
2021/05/20 07:44:07;;;;;;;2.30;2.10;;;18.50;99.90;;;;;;5074686;28;20918;-74
2021/05/20 07:46:32;;;;;;;2.80;1.90;;;18.00;99.90;;;;;;5089983;28;20405;-74
2021/05/20 07:48:58;;;;;;;3.13;1.90;;;18.50;99.90;;;;;;5080548;28;20217;-73
2021/05/20 07:51:24;;;;;;;2.70;1.33;;;18.50;99.90;;;;;;5094021;28;20244;-75
2021/05/20 07:53:50;;;;;;;1.80;1.50;;;18.20;99.90;;;;;;5092809;28;20230;-74
2021/05/20 07:56:15;;;;;;;3.10;2.30;;;19.20;99.90;;;;;;5081444;28;20433;-74
2021/05/20 07:58:41;;;;;;;3.77;2.63;;;17.50;99.90;;;;;;5102075;28;20195;-74
2021/05/20 08:01:06;;;;;;;2.50;2.07;;;15.70;99.90;;;;;;5094174;28;20194;-74
2021/05/20 08:06:11;;;;;;;2.53;1.90;;;17.90;99.90;;;;;;5094529;28;20226;-74
2021/05/20 08:11:21;;;;;;;1.80;1.53;;;17.00;99.90;;;;;;5073621;28;20393;-73
2021/05/20 08:13:46;;;;;;;9.23;1.67;;;17.50;99.90;;;;;;5074000;28;20403;-73
2021/05/20 08:16:13;;;;;;;5.93;2.00;;;18.60;99.90;;;;;;5076337;28;20732;-73
2021/05/20 08:18:39;;;;;;;4.70;2.17;;;17.60;99.90;;;;;;5090455;28;20460;-73
2021/05/20 08:21:05;;;;;;;2.40;1.60;;;18.90;99.90;;;;;;5075706;28;20473;-73
2021/05/20 08:23:32;;;;;;;1.60;1.50;;;18.30;99.90;;;;;;5095838;28;20177;-73
2021/05/20 08:25:58;;;;;;;2.20;1.47;;;18.90;99.90;;;;;;5097589;28;20467;-74
2021/05/20 08:28:24;;;;;;;1.93;1.53;;;19.80;99.90;;;;;;5073291;28;20462;-73
2021/05/20 08:30:49;;;;;;;5.33;3.13;;;19.20;99.90;;;;;;5072186;28;20268;-73
2021/05/20 08:33:15;;;;;;;3.60;1.60;;;18.80;99.90;;;;;;5073156;28;20225;-73
2021/05/20 08:35:40;;;;;;;2.30;1.70;;;19.10;99.90;;;;;;5073528;28;20184;-74
2021/05/20 08:38:06;;;;;;;1.70;1.60;;;19.10;99.90;;;;;;5073277;28;20197;-73
2021/05/20 08:40:33;;;;;;;2.57;1.50;;;19.60;99.90;;;;;;5088324;28;20187;-74
2021/05/20 08:42:59;;;;;;;1.60;1.50;;;19.90;99.90;;;;;;5081194;28;20420;-74
2021/05/20 08:45:30;;;;;;;2.03;1.30;;;18.40;99.90;;;;;;5094408;28;20787;-74
2021/05/20 08:47:56;;;;;;;2.63;1.70;;;18.70;99.90;;;;;;5092895;28;20455;-74
2021/05/20 08:50:25;;;;;;;2.63;1.40;;;16.70;99.90;;;;;;5093729;28;20440;-74
2021/05/20 08:52:51;;;;;;;2.13;1.90;;;17.80;99.90;;;;;;5093036;28;20473;-74
2021/05/20 08:55:20;;;;;;;1.23;1.00;;;18.80;99.90;;;;;;5088995;28;20451;-75
2021/05/20 08:57:46;;;;;;;1.37;1.23;;;18.40;99.90;;;;;;5104962;28;20462;-74
2021/05/20 09:00:15;;;;;;;1.80;1.20;;;17.70;99.90;;;;;;5104197;28;20421;-74
2021/05/20 09:02:40;;;;;;;4.20;1.77;;;17.40;99.90;;;;;;5072603;28;20918;-74
2021/05/20 09:05:11;;;;;;;2.70;1.20;;;17.70;99.90;;;;;;5072704;28;20545;-74
2021/05/20 09:07:39;;;;;;;2.43;1.77;;;18.10;99.90;;;;;;5072389;28;20674;-75
2021/05/20 09:10:13;;;;;;;1.70;1.30;;;17.70;99.90;;;;;;5072768;28;20407;-75
2021/05/20 09:12:40;;;;;;;1.37;1.27;;;18.30;99.90;;;;;;5072686;28;20487;-75
2021/05/20 09:15:18;;;;;;;1.40;1.30;;;19.00;99.90;;;;;;5072640;28;20925;-74
2021/05/20 09:17:44;;;;;;;2.30;1.27;;;18.80;99.90;;;;;;5080631;28;20422;-74
2021/05/20 09:20:11;;;;;;;1.57;1.37;;;18.40;99.90;;;;;;5093188;28;20496;-77
2021/05/20 09:22:37;;;;;;;2.67;1.60;;;19.00;99.90;;;;;;5092661;28;20973;-75
2021/05/20 09:25:04;;;;;;;3.30;1.50;;;18.90;99.90;;;;;;5075901;28;20416;-74
2021/05/20 09:27:35;;;;;;;4.40;1.30;;;18.30;99.90;;;;;;5072012;28;20907;-74
2021/05/20 09:30:20;;;;;;;2.67;1.37;;;17.30;99.90;;;;;;5072736;28;20439;-74
2021/05/20 09:32:47;;;;;;;1.23;1.13;;;18.50;99.90;;;;;;5072013;28;20430;-74
2021/05/20 09:35:16;;;;;;;1.47;1.07;;;18.00;99.90;;;;;;5072778;28;20404;-74
2021/05/20 09:37:55;;;;;;;4.17;2.00;;;17.40;99.90;;;;;;5072562;28;20414;-74
2021/05/20 09:40:24;;;;;;;2.33;1.60;;;19.00;99.90;;;;;;5084926;28;20771;-75
2021/05/20 09:42:50;;;;;;;1.43;1.33;;;17.40;99.90;;;;;;5089801;28;20561;-74
2021/05/20 09:45:20;;;;;;;1.80;1.40;;;18.40;99.90;;;;;;5097607;28;20504;-74
2021/05/20 09:47:46;;;;;;;3.13;1.73;;;18.50;99.90;;;;;;5091733;28;20450;-75
2021/05/20 09:50:15;;;;;;;1.87;1.77;;;16.90;99.90;;;;;;5092217;28;20400;-72
2021/05/20 09:52:41;;;;;;;2.93;1.80;;;17.60;99.90;;;;;;5074657;28;20414;-75
2021/05/20 09:55:27;;;;;;;1.70;1.40;;;17.70;99.90;;;;;;5071352;28;20499;-77
2021/05/20 09:57:55;;;;;;;1.90;1.70;;;18.20;99.90;;;;;;5096084;28;20617;-75
2021/05/20 10:00:25;;;;;;;2.83;1.40;;;16.60;99.90;;;;;;5071776;28;20401;-74
2021/05/20 10:03:03;;;;;;;3.10;1.80;;;16.30;99.90;;;;;;5071264;28;20443;-75
2021/05/20 10:05:32;;;;;;;2.70;1.37;;;15.80;99.90;;;;;;5083716;28;20416;-75
2021/05/20 10:08:00;;;;;;;2.03;1.80;;;16.70;99.90;;;;;;5095460;28;20505;-76
2021/05/20 10:10:26;;;;;;;2.93;2.43;;;17.20;99.90;;;;;;5071566;28;20407;-75
2021/05/20 10:12:52;;;;;;;2.40;1.67;;;17.00;99.90;;;;;;5073087;28;20426;-75
2021/05/20 10:15:23;;;;;;;1.90;1.70;;;17.20;99.90;;;;;;5071384;28;20234;-75
2021/05/20 10:17:50;;;;;;;2.77;2.07;;;17.40;99.90;;;;;;5074544;28;20421;-76
2021/05/20 10:20:20;;;;;;;4.30;2.50;;;16.70;99.90;;;;;;5085333;28;20436;-77
2021/05/20 10:22:48;;;;;;;1.73;1.50;;;17.30;99.90;;;;;;5087952;28;20470;-75
2021/05/20 10:25:15;;;;;;;1.90;1.50;;;16.90;99.90;;;;;;5077508;28;20469;-76
2021/05/20 10:27:43;;;;;;;3.30;1.53;;;17.30;99.90;;;;;;5091264;28;20445;-76
2021/05/20 10:30:21;;;;;;;2.23;1.70;;;16.70;99.90;;;;;;5091698;28;20424;-75
2021/05/20 10:32:59;;;;;;;2.50;1.80;;;16.70;99.90;;;;;;5085852;28;20766;-75
2021/05/20 10:35:42;;;;;;;2.27;1.93;;;16.80;99.90;;;;;;5071414;28;20491;-75
2021/05/20 10:38:08;;;;;;;1.70;1.60;;;16.20;99.90;;;;;;5071488;28;20466;-78
2021/05/20 10:40:34;;;;;;;2.13;1.93;;;16.20;99.90;;;;;;5075357;28;20428;-78
2021/05/20 10:43:04;;;;;;;2.07;1.90;;;16.80;99.90;;;;;;5092186;28;20499;-76
2021/05/20 10:45:30;;;;;;;9.60;4.00;;;16.70;99.90;;;;;;5108755;28;20697;-75
2021/05/20 10:48:05;;;;;;;6.67;6.00;;;16.30;99.90;;;;;;5090961;28;20544;-75
2021/05/20 10:50:52;;;;;;;7.73;5.07;;;16.50;99.90;;;;;;5091513;28;20413;-75
2021/05/20 10:53:40;;;;;;;5.93;5.23;;;17.10;99.90;;;;;;5091311;28;20408;-76
2021/05/20 10:56:06;;;;;;;4.10;2.80;;;17.10;99.90;;;;;;5090796;28;20498;-76
2021/05/20 10:58:37;;;;;;;2.00;1.80;;;15.80;99.90;;;;;;5091286;28;20428;-76
2021/05/20 11:01:04;;;;;;;2.90;2.70;;;16.00;99.90;;;;;;5090499;28;20408;-76
2021/05/20 11:03:51;;;;;;;2.60;2.40;;;16.80;99.90;;;;;;5093970;28;20452;-76
2021/05/20 11:06:46;;;;;;;6.23;2.53;;;16.80;99.90;;;;;;5091216;28;20453;-76
2021/05/20 11:09:15;;;;;;;6.43;4.00;;;16.80;99.90;;;;;;5073867;28;20467;-76
2021/05/20 11:11:41;;;;;;;3.37;3.07;;;16.60;99.90;;;;;;5075121;28;20987;-75
2021/05/20 11:14:12;;;;;;;2.63;1.80;;;17.30;99.90;;;;;;5079883;28;20485;-76
2021/05/20 11:16:39;;;;;;;3.63;2.97;;;17.20;99.40;;;;;;5095506;28;20208;-75
2021/05/20 11:19:27;;;;;;;2.70;2.10;;;17.00;99.30;;;;;;5090367;28;20512;-75
2021/05/20 11:21:55;;;;;;;2.00;1.80;;;17.20;99.10;;;;;;5083635;28;20409;-75
2021/05/20 11:24:29;;;;;;;5.33;2.00;;;17.40;99.90;;;;;;5082741;28;20409;-75
2021/05/20 11:27:03;;;;;;;3.43;2.00;;;17.60;98.90;;;;;;5074713;28;20397;-75
2021/05/20 11:29:34;;;;;;;2.23;1.77;;;17.70;99.40;;;;;;5074503;28;20787;-75
2021/05/20 11:32:16;;;;;;;3.00;2.30;;;17.20;99.90;;;;;;5074709;28;20403;-75
2021/05/20 11:37:22;;;;;;;1.50;1.40;;;17.70;99.50;;;;;;5074239;28;20921;-75
2021/05/20 11:40:04;;;;;;;2.07;1.70;;;17.90;99.40;;;;;;5083219;28;20429;-75
2021/05/20 11:42:36;;;;;;;2.23;1.80;;;16.90;98.70;;;;;;5081305;28;20421;-76
2021/05/20 11:45:15;;;;;;;3.23;2.37;;;16.50;99.90;;;;;;5076969;28;20479;-76
2021/05/20 11:47:40;;;;;;;4.20;1.57;;;17.50;99.90;;;;;;5103036;28;20449;-74
2021/05/20 11:50:12;;;;;;;1.93;1.73;;;17.70;98.80;;;;;;5091235;28;20418;-75
2021/05/20 11:52:37;;;;;;;2.13;1.70;;;17.40;97.90;;;;;;5074358;28;20655;-75
2021/05/20 11:55:05;;;;;;;1.60;1.40;;;17.80;98.40;;;;;;5074792;28;20456;-76
2021/05/20 11:57:30;;;;;;;1.87;1.50;;;18.30;98.00;;;;;;5074031;28;20342;-75
2021/05/20 11:59:56;;;;;;;2.13;1.30;;;18.10;98.00;;;;;;5073777;28;20454;-76
2021/05/20 12:02:23;;;;;;;1.93;1.30;;;17.80;97.90;;;;;;5073796;28;20173;-75
2021/05/20 12:05:00;;;;;;;1.87;1.40;;;17.40;96.90;;;;;;5073791;28;20408;-75
2021/05/20 12:07:28;;;;;;;2.60;2.40;;;17.70;96.40;;;;;;5079610;28;20510;-75
2021/05/20 12:10:05;;;;;;;1.93;1.80;;;17.90;96.90;;;;;;5094110;28;20790;-75
2021/05/20 12:12:31;;;;;;;1.73;1.63;;;17.50;95.70;;;;;;5093807;28;20406;-75
2021/05/20 12:14:56;;;;;;;2.07;1.30;;;18.00;97.50;;;;;;5088839;28;20502;-75
2021/05/20 12:17:24;;;;;;;2.27;1.40;;;18.20;96.10;;;;;;5101874;28;20215;-75
2021/05/20 12:19:51;;;;;;;1.33;1.00;;;18.00;96.90;;;;;;5093802;28;20585;-74
2021/05/20 12:22:19;;;;;;;1.20;1.10;;;18.20;96.10;;;;;;5093864;28;20415;-74
2021/05/20 12:24:48;;;;;;;3.00;1.10;;;18.00;95.90;;;;;;5087714;28;20425;-74
2021/05/20 12:27:28;;;;;;;1.20;0.93;;;18.20;95.20;;;;;;5093784;28;20438;-74
2021/05/20 12:29:56;;;;;;;1.50;1.40;;;17.50;94.80;;;;;;5093787;28;20500;-75
2021/05/20 12:32:39;;;;;;;2.23;1.37;;;17.60;95.10;;;;;;5091745;28;20431;-74
2021/05/20 12:35:14;;;;;;;1.20;1.10;;;17.40;94.30;;;;;;5073543;28;20387;-74
2021/05/20 12:37:47;;;;;;;1.67;1.00;;;16.90;94.80;;;;;;5073257;28;20408;-76
2021/05/20 12:40:17;;;;;;;1.97;1.57;;;16.90;95.50;;;;;;5086229;28;20409;-75
2021/05/20 12:42:43;;;;;;;1.70;1.60;;;16.90;95.90;;;;;;5079914;28;20903;-74
2021/05/20 12:45:10;;;;;;;1.20;1.10;;;17.10;95.50;;;;;;5077631;28;20416;-74
2021/05/20 12:47:48;;;;;;;1.30;1.20;;;16.70;94.70;;;;;;5092973;28;20999;-75
2021/05/20 12:50:25;;;;;;;2.63;2.03;;;16.60;94.80;;;;;;5093144;28;20472;-74
2021/05/20 12:52:52;;;;;;;5.00;1.70;;;16.50;95.20;;;;;;5093193;28;20393;-75
2021/05/20 12:55:18;;;;;;;1.73;1.30;;;16.50;95.60;;;;;;5091413;28;20793;-74
2021/05/20 12:57:58;;;;;;;1.53;1.43;;;16.50;95.60;;;;;;5089013;28;20521;-75
2021/05/20 13:00:24;;;;;;;1.40;1.20;;;16.30;95.80;;;;;;5073131;28;20251;-75